createdAt,value
2023-04-17T00:00:43.285Z,100.00
2023-04-17T00:03:12.018Z,100.00
2023-04-17T00:05:39.892Z,100.00
2023-04-17T00:08:07.902Z,100.00
2023-04-17T00:10:35.586Z,100.00
2023-04-17T00:13:03.321Z,100.00
2023-04-17T00:15:31.234Z,100.00
2023-04-17T00:18:00.389Z,100.00
2023-04-17T00:20:28.298Z,100.00
2023-04-17T00:22:56.105Z,100.00
2023-04-17T00:25:24.132Z,100.00
2023-04-17T00:27:51.828Z,100.00
2023-04-17T00:30:19.668Z,100.00
2023-04-17T00:32:47.374Z,100.00
2023-04-17T00:35:16.921Z,100.00
2023-04-17T00:37:44.700Z,100.00
2023-04-17T00:40:13.516Z,100.00
2023-04-17T00:42:41.229Z,100.00
2023-04-17T00:45:10.955Z,100.00
2023-04-17T00:47:38.852Z,100.00
2023-04-17T00:50:07.702Z,100.00
2023-04-17T00:52:36.784Z,100.00
2023-04-17T00:55:04.854Z,100.00
2023-04-17T00:57:32.618Z,100.00
2023-04-17T01:00:00.380Z,100.00
2023-04-17T01:02:28.293Z,100.00
2023-04-17T01:04:56.147Z,100.00
2023-04-17T01:07:23.897Z,100.00
2023-04-17T01:09:52.977Z,100.00
2023-04-17T01:12:21.821Z,100.00
2023-04-17T01:14:51.057Z,100.00
2023-04-17T01:17:20.414Z,100.00
2023-04-17T01:19:48.508Z,100.00
2023-04-17T01:22:17.367Z,100.00
2023-04-17T01:24:46.718Z,100.00
2023-04-17T01:27:15.394Z,100.00
2023-04-17T01:29:44.058Z,100.00
2023-04-17T01:32:11.795Z,100.00
2023-04-17T01:34:39.637Z,100.00
2023-04-17T01:37:07.566Z,100.00
2023-04-17T01:39:35.526Z,100.00
2023-04-17T01:42:04.966Z,100.00
2023-04-17T01:44:32.676Z,100.00
2023-04-17T01:47:00.367Z,100.00
2023-04-17T01:49:28.443Z,100.00
2023-04-17T01:51:56.150Z,100.00
2023-04-17T01:54:24.962Z,100.00
2023-04-17T01:56:53.080Z,100.00
2023-04-17T01:59:22.163Z,100.00
2023-04-17T02:01:50.729Z,100.00
2023-04-17T02:04:18.605Z,100.00
2023-04-17T02:06:46.374Z,100.00
2023-04-17T02:09:14.086Z,100.00
2023-04-17T02:11:41.817Z,100.00
2023-04-17T02:14:09.526Z,100.00
2023-04-17T02:16:39.981Z,100.00
2023-04-17T02:19:07.779Z,100.00
2023-04-17T02:21:35.458Z,100.00
2023-04-17T02:24:03.199Z,100.00
2023-04-17T02:26:30.899Z,100.00
2023-04-17T02:28:58.656Z,100.00
2023-04-17T02:31:26.510Z,100.00
2023-04-17T02:33:55.725Z,100.00
2023-04-17T02:36:23.443Z,100.00
2023-04-17T02:38:51.286Z,100.00
2023-04-17T02:41:19.024Z,100.00
2023-04-17T02:43:46.989Z,100.00
2023-04-17T02:46:14.809Z,100.00
2023-04-17T02:48:42.617Z,100.00
2023-04-17T02:51:11.814Z,100.00
2023-04-17T02:53:39.517Z,100.00
2023-04-17T02:56:07.621Z,100.00
2023-04-17T02:58:35.425Z,100.00
2023-04-17T03:01:03.932Z,100.00
2023-04-17T03:03:35.017Z,100.00
2023-04-17T03:06:03.935Z,100.00
2023-04-17T03:08:35.506Z,100.00
2023-04-17T03:11:03.581Z,100.00
2023-04-17T03:13:31.499Z,100.00
2023-04-17T03:16:00.347Z,100.00
2023-04-17T03:18:28.068Z,100.00
2023-04-17T03:20:55.745Z,100.00
2023-04-17T03:23:23.499Z,100.00
2023-04-17T03:25:52.767Z,100.00
2023-04-17T03:28:22.006Z,100.00
2023-04-17T03:30:50.334Z,100.00
2023-04-17T03:33:18.103Z,100.00
2023-04-17T03:35:46.703Z,100.00
2023-04-17T03:38:14.524Z,100.00
2023-04-17T03:40:42.339Z,100.00
2023-04-17T03:43:11.405Z,100.00
2023-04-17T03:45:39.152Z,100.00
2023-04-17T03:48:07.378Z,100.00
2023-04-17T03:50:35.335Z,100.00
2023-04-17T03:53:03.125Z,100.00
2023-04-17T03:55:30.879Z,100.00
2023-04-17T03:57:58.573Z,100.00
2023-04-17T04:00:28.566Z,100.00
2023-04-17T04:02:56.445Z,100.00
2023-04-17T04:05:24.656Z,100.00
2023-04-17T04:07:52.576Z,100.00
2023-04-17T04:10:20.234Z,100.00
2023-04-17T04:12:47.974Z,100.00
2023-04-17T04:15:15.720Z,100.00
2023-04-17T04:17:44.930Z,100.00
2023-04-17T04:20:12.694Z,100.00
2023-04-17T04:22:41.657Z,100.00
2023-04-17T04:25:09.830Z,100.00
2023-04-17T04:27:37.787Z,100.00
2023-04-17T04:30:06.540Z,100.00
2023-04-17T04:32:34.326Z,100.00
2023-04-17T04:35:03.376Z,100.00
2023-04-17T04:37:32.346Z,100.00
2023-04-17T04:40:10.378Z,100.00
2023-04-17T04:42:38.222Z,100.00
2023-04-17T04:45:06.963Z,100.00
2023-04-17T04:47:34.643Z,100.00
2023-04-17T04:50:03.802Z,100.00
2023-04-17T04:52:31.526Z,100.00
2023-04-17T04:54:59.197Z,100.00
2023-04-17T04:57:27.089Z,100.00
2023-04-17T04:59:54.783Z,100.00
2023-04-17T05:02:22.676Z,100.00
2023-04-17T05:04:50.841Z,100.00
2023-04-17T05:07:19.970Z,100.00
2023-04-17T05:09:47.752Z,100.00
2023-04-17T05:12:15.412Z,100.00
2023-04-17T05:14:43.148Z,100.00
2023-04-17T05:17:10.856Z,100.00
2023-04-17T05:19:38.516Z,100.00
2023-04-17T05:22:06.204Z,100.00
2023-04-17T05:24:35.333Z,100.00
2023-04-17T05:27:03.053Z,100.00
2023-04-17T05:29:32.703Z,100.00
2023-04-17T05:32:00.742Z,100.00
2023-04-17T05:34:28.510Z,100.00
2023-04-17T05:36:56.541Z,100.00
2023-04-17T05:39:24.302Z,100.00
2023-04-17T05:41:53.389Z,100.00
2023-04-17T05:44:21.149Z,100.00
2023-04-17T05:46:48.873Z,100.00
2023-04-17T05:49:17.008Z,100.00
2023-04-17T05:51:44.874Z,100.00
2023-04-17T05:54:12.542Z,100.00
2023-04-17T05:56:40.309Z,100.00
2023-04-17T05:59:09.376Z,100.00
2023-04-17T06:01:37.435Z,100.00
2023-04-17T06:04:05.855Z,100.00
2023-04-17T06:06:33.772Z,100.00
2023-04-17T06:09:01.539Z,100.00
2023-04-17T06:11:29.323Z,100.00
2023-04-17T06:13:57.018Z,100.00
2023-04-17T06:16:26.632Z,100.00
2023-04-17T06:18:54.396Z,100.00
2023-04-17T06:21:22.282Z,100.00
2023-04-17T06:23:50.013Z,100.00
2023-04-17T06:26:17.870Z,100.00
2023-04-17T06:28:45.596Z,100.00
2023-04-17T06:31:13.368Z,100.00
2023-04-17T06:33:42.493Z,100.00
2023-04-17T06:36:10.558Z,100.00
2023-04-17T06:38:38.218Z,100.00
2023-04-17T06:41:06.272Z,100.00
2023-04-17T06:43:34.118Z,100.00
2023-04-17T06:46:02.037Z,100.00
2023-04-17T06:48:29.770Z,100.00
2023-04-17T06:50:58.839Z,100.00
2023-04-17T06:53:27.196Z,100.00
2023-04-17T06:55:55.664Z,100.00
2023-04-17T06:58:23.491Z,100.00
2023-04-17T07:00:51.208Z,100.00
2023-04-17T07:03:19.077Z,100.00
2023-04-17T07:05:46.900Z,100.00
2023-04-17T07:08:18.381Z,100.00
2023-04-17T07:10:46.400Z,100.00
2023-04-17T07:13:14.190Z,100.00
2023-04-17T07:15:42.089Z,100.00
2023-04-17T07:18:09.906Z,100.00
2023-04-17T07:20:37.938Z,100.00
2023-04-17T07:23:05.730Z,100.00
2023-04-17T07:25:34.738Z,100.00
2023-04-17T07:28:04.377Z,100.00
2023-04-17T07:30:32.493Z,100.00
2023-04-17T07:33:00.419Z,100.00
2023-04-17T07:35:28.256Z,100.00
2023-04-17T07:37:59.093Z,100.00
2023-04-17T07:40:26.974Z,100.00
2023-04-17T07:42:56.769Z,100.00
2023-04-17T07:45:26.518Z,100.00
2023-04-17T07:47:54.353Z,100.00
2023-04-17T07:50:22.367Z,100.00
2023-04-17T07:52:50.080Z,100.00
2023-04-17T07:55:17.983Z,100.00
2023-04-17T07:57:46.630Z,100.00
2023-04-17T08:00:16.470Z,100.00
2023-04-17T08:02:44.732Z,100.00
2023-04-17T08:05:12.588Z,100.00
2023-04-17T08:07:41.243Z,100.00
2023-04-17T08:10:09.641Z,100.00
2023-04-17T08:12:37.413Z,100.00
2023-04-17T08:15:05.964Z,100.00
2023-04-17T08:17:35.477Z,100.00
2023-04-17T08:20:07.795Z,100.00
2023-04-17T08:22:39.817Z,100.00
2023-04-17T08:25:09.412Z,100.00
2023-04-17T08:27:37.306Z,100.00
2023-04-17T08:30:05.495Z,100.00
2023-04-17T08:32:40.188Z,100.00
2023-04-17T08:35:09.859Z,100.00
2023-04-17T08:37:37.613Z,100.00
2023-04-17T08:40:07.624Z,100.00
2023-04-17T08:42:36.712Z,100.00
2023-04-17T08:45:06.237Z,100.00
2023-04-17T08:47:34.308Z,100.00
2023-04-17T08:50:08.942Z,100.00
2023-04-17T08:52:40.512Z,96.81
2023-04-17T08:55:08.996Z,87.80
2023-04-17T08:57:38.655Z,93.14
2023-04-17T09:00:12.170Z,93.23
2023-04-17T09:02:54.010Z,99.88
2023-04-17T09:05:24.285Z,96.23
2023-04-17T09:07:53.248Z,96.63
2023-04-17T09:10:20.999Z,99.28
2023-04-17T09:13:01.225Z,88.55
2023-04-17T09:15:29.103Z,86.30
2023-04-17T09:17:56.833Z,92.87
2023-04-17T09:20:26.566Z,90.76
2023-04-17T09:23:01.840Z,93.26
2023-04-17T09:25:30.088Z,97.33
2023-04-17T09:28:11.657Z,89.96
2023-04-17T09:30:40.083Z,96.43
2023-04-17T09:33:09.576Z,99.12
2023-04-17T09:35:40.210Z,96.28
2023-04-17T09:38:08.060Z,99.08
2023-04-17T09:40:40.690Z,96.67
2023-04-17T09:43:10.028Z,95.86
2023-04-17T09:45:41.595Z,93.89
2023-04-17T09:48:11.973Z,92.35
2023-04-17T09:50:41.221Z,88.33
2023-04-17T09:53:09.372Z,88.25
2023-04-17T09:55:37.957Z,84.73
2023-04-17T09:58:07.365Z,91.35
2023-04-17T10:00:36.949Z,87.98
2023-04-17T10:03:04.987Z,91.40
2023-04-17T10:05:33.005Z,94.46
2023-04-17T10:08:02.453Z,84.51
2023-04-17T10:10:33.189Z,79.16
2023-04-17T10:13:02.564Z,81.44
2023-04-17T10:15:30.780Z,80.18
2023-04-17T10:18:20.177Z,79.44
2023-04-17T10:20:48.744Z,84.12
2023-04-17T10:23:33.931Z,78.98
2023-04-17T10:26:38.951Z,82.37
2023-04-17T10:29:06.709Z,75.98
2023-04-17T10:32:25.928Z,78.26
2023-04-17T10:34:54.724Z,79.33
2023-04-17T10:37:25.392Z,73.11
2023-04-17T10:39:56.970Z,73.60
2023-04-17T10:42:25.672Z,74.06
2023-04-17T10:44:58.346Z,68.31
2023-04-17T10:47:33.073Z,64.11
2023-04-17T10:50:03.395Z,66.80
2023-04-17T10:52:43.512Z,72.88
2023-04-17T10:55:17.994Z,67.50
2023-04-17T10:58:00.812Z,68.61
2023-04-17T11:00:31.643Z,66.51
2023-04-17T11:02:59.512Z,69.42
2023-04-17T11:05:27.409Z,62.36
2023-04-17T11:07:55.177Z,60.23
2023-04-17T11:10:24.386Z,60.05
2023-04-17T11:12:56.564Z,61.78
2023-04-17T11:15:28.751Z,59.73
2023-04-17T11:17:57.062Z,55.98
2023-04-17T11:20:25.794Z,52.49
2023-04-17T11:22:53.842Z,54.07
2023-04-17T11:25:27.214Z,51.69
2023-04-17T11:27:58.890Z,52.18
2023-04-17T11:30:28.712Z,54.45
2023-04-17T11:32:58.813Z,56.74
2023-04-17T11:35:31.103Z,55.06
2023-04-17T11:38:22.893Z,54.64
2023-04-17T11:40:53.703Z,57.53
2023-04-17T11:43:22.562Z,54.92
2023-04-17T11:45:51.747Z,52.78
2023-04-17T11:48:23.433Z,53.42
2023-04-17T11:50:55.659Z,54.18
2023-04-17T11:53:23.515Z,56.00
2023-04-17T11:56:11.971Z,52.10
2023-04-17T11:58:46.680Z,54.75
2023-04-17T12:01:14.445Z,50.30
2023-04-17T12:03:45.321Z,54.00
2023-04-17T12:06:13.321Z,55.63
2023-04-17T12:08:50.199Z,56.05
2023-04-17T12:11:24.975Z,53.90
2023-04-17T12:13:53.100Z,52.48
2023-04-17T12:16:20.890Z,52.34
2023-04-17T12:18:48.807Z,49.20
2023-04-17T12:21:16.483Z,49.05
2023-04-17T12:23:44.235Z,48.63
2023-04-17T12:26:12.032Z,48.83
2023-04-17T12:28:41.103Z,50.06
2023-04-17T12:31:08.870Z,51.08
2023-04-17T12:33:36.596Z,47.58
2023-04-17T12:36:06.499Z,48.08
2023-04-17T12:38:34.303Z,48.55
2023-04-17T12:41:02.102Z,47.04
2023-04-17T12:43:29.817Z,46.79
2023-04-17T12:45:58.896Z,46.68
2023-04-17T12:48:26.853Z,48.00
2023-04-17T12:50:54.654Z,47.64
2023-04-17T12:53:22.462Z,47.47
2023-04-17T12:55:50.515Z,45.25
2023-04-17T12:58:18.309Z,47.21
2023-04-17T13:00:46.513Z,44.29
2023-04-17T13:03:16.028Z,43.94
2023-04-17T13:05:44.459Z,43.99
2023-04-17T13:08:15.044Z,41.94
2023-04-17T13:10:42.870Z,42.50
2023-04-17T13:13:10.963Z,40.86
2023-04-17T13:15:38.810Z,40.96
2023-04-17T13:18:06.659Z,43.22
2023-04-17T13:20:35.859Z,42.85
2023-04-17T13:23:03.621Z,44.19
2023-04-17T13:25:31.548Z,44.62
2023-04-17T13:27:59.338Z,43.87
2023-04-17T13:30:27.258Z,43.45
2023-04-17T13:32:55.049Z,44.59
2023-04-17T13:35:22.792Z,43.33
2023-04-17T13:37:51.866Z,42.25
2023-04-17T13:40:19.799Z,42.50
2023-04-17T13:42:47.553Z,42.65
2023-04-17T13:45:16.040Z,43.66
2023-04-17T13:47:44.678Z,43.46
2023-04-17T13:50:13.676Z,43.03
2023-04-17T13:52:41.405Z,42.96
2023-04-17T13:55:14.638Z,41.87
2023-04-17T13:57:42.629Z,41.50
2023-04-17T14:00:11.731Z,41.68
2023-04-17T14:02:39.623Z,42.01
2023-04-17T14:05:08.152Z,41.12
2023-04-17T14:07:35.866Z,40.73
2023-04-17T14:10:04.062Z,38.70
2023-04-17T14:12:33.101Z,37.69
2023-04-17T14:15:00.780Z,40.27
2023-04-17T14:17:28.614Z,39.87
2023-04-17T14:19:56.393Z,40.62
2023-04-17T14:22:24.158Z,40.23
2023-04-17T14:24:51.965Z,39.75
2023-04-17T14:27:19.748Z,40.42
2023-04-17T14:29:48.830Z,39.72
2023-04-17T14:32:16.628Z,40.03
2023-04-17T14:34:44.371Z,39.02
2023-04-17T14:37:12.089Z,38.93
2023-04-17T14:39:39.768Z,38.37
2023-04-17T14:42:07.533Z,39.01
2023-04-17T14:44:35.293Z,40.64
2023-04-17T14:47:04.969Z,40.40
2023-04-17T14:49:32.853Z,42.40
2023-04-17T14:52:00.528Z,42.19
2023-04-17T14:54:28.285Z,42.22
2023-04-17T14:56:55.982Z,41.67
2023-04-17T14:59:23.783Z,41.76
2023-04-17T15:01:51.570Z,40.81
2023-04-17T15:04:21.124Z,40.15
2023-04-17T15:06:49.214Z,38.74
2023-04-17T15:09:16.896Z,38.48
2023-04-17T15:11:44.620Z,38.77
2023-04-17T15:14:12.334Z,37.33
2023-04-17T15:16:40.161Z,37.66
2023-04-17T15:19:07.873Z,39.86
2023-04-17T15:21:36.963Z,40.19
2023-04-17T15:24:05.163Z,39.70
2023-04-17T15:26:33.118Z,39.67
2023-04-17T15:29:01.515Z,38.71
2023-04-17T15:31:29.212Z,38.66
2023-04-17T15:33:56.964Z,38.06
2023-04-17T15:36:31.250Z,38.28
2023-04-17T15:39:00.842Z,39.06
2023-04-17T15:41:28.619Z,39.89
2023-04-17T15:43:56.696Z,39.47
2023-04-17T15:46:24.561Z,40.34
2023-04-17T15:49:07.576Z,40.41
2023-04-17T15:51:35.745Z,40.09
2023-04-17T15:54:05.033Z,40.60
2023-04-17T15:56:32.735Z,40.61
2023-04-17T15:59:00.486Z,40.73
2023-04-17T16:01:28.747Z,39.71
2023-04-17T16:03:56.637Z,39.49
2023-04-17T16:06:24.480Z,37.45
2023-04-17T16:08:52.274Z,37.60
2023-04-17T16:11:21.433Z,37.01
2023-04-17T16:13:49.165Z,39.00
2023-04-17T16:16:16.960Z,39.35
2023-04-17T16:18:46.960Z,39.76
2023-04-17T16:21:15.166Z,39.39
2023-04-17T16:23:44.282Z,39.33
2023-04-17T16:26:12.060Z,40.21
2023-04-17T16:28:41.157Z,41.23
2023-04-17T16:31:09.729Z,40.22
2023-04-17T16:33:37.405Z,39.46
2023-04-17T16:36:05.482Z,39.70
2023-04-17T16:38:35.448Z,39.98
2023-04-17T16:41:04.241Z,40.40
2023-04-17T16:43:31.930Z,40.67
2023-04-17T16:46:05.460Z,40.75
2023-04-17T16:48:36.283Z,40.77
2023-04-17T16:51:05.153Z,41.25
2023-04-17T16:53:33.182Z,41.44
2023-04-17T16:56:00.965Z,41.63
2023-04-17T16:58:28.902Z,41.01
2023-04-17T17:00:56.962Z,41.82
2023-04-17T17:03:26.056Z,41.18
2023-04-17T17:05:55.113Z,41.44
2023-04-17T17:08:22.856Z,41.52
2023-04-17T17:10:51.013Z,40.85
2023-04-17T17:13:18.785Z,41.72
2023-04-17T17:15:46.466Z,41.98
2023-04-17T17:18:14.233Z,42.28
2023-04-17T17:20:43.295Z,42.53
2023-04-17T17:23:10.970Z,42.74
2023-04-17T17:25:38.765Z,42.78
2023-04-17T17:28:06.521Z,42.23
2023-04-17T17:30:34.249Z,42.40
2023-04-17T17:33:02.055Z,42.23
2023-04-17T17:35:29.799Z,42.72
2023-04-17T17:37:58.932Z,42.41
2023-04-17T17:40:26.671Z,42.25
2023-04-17T17:42:54.437Z,43.04
2023-04-17T17:45:22.174Z,42.96
2023-04-17T17:47:50.029Z,43.37
2023-04-17T17:50:18.150Z,43.71
2023-04-17T17:52:45.919Z,44.75
2023-04-17T17:55:16.645Z,44.01
2023-04-17T17:57:49.482Z,44.48
2023-04-17T18:00:18.106Z,45.21
2023-04-17T18:02:46.092Z,43.81
2023-04-17T18:05:13.958Z,45.40
2023-04-17T18:07:43.204Z,44.93
2023-04-17T18:10:11.562Z,44.82
2023-04-17T18:12:40.816Z,44.88
2023-04-17T18:15:09.768Z,45.61
2023-04-17T18:17:37.525Z,46.48
2023-04-17T18:20:05.623Z,47.11
2023-04-17T18:22:33.359Z,47.54
2023-04-17T18:25:01.076Z,46.99
2023-04-17T18:27:28.935Z,48.55
2023-04-17T18:29:59.134Z,48.08
2023-04-17T18:32:26.851Z,49.32
2023-04-17T18:34:54.618Z,50.09
2023-04-17T18:37:22.363Z,50.94
2023-04-17T18:39:50.223Z,51.41
2023-04-17T18:42:17.981Z,51.54
2023-04-17T18:44:45.721Z,53.76
2023-04-17T18:47:14.876Z,53.43
2023-04-17T18:49:42.609Z,55.29
2023-04-17T18:52:10.369Z,54.15
2023-04-17T18:54:38.031Z,55.77
2023-04-17T18:57:05.827Z,57.26
2023-04-17T18:59:33.825Z,57.07
2023-04-17T19:02:01.662Z,58.46
2023-04-17T19:04:30.850Z,59.51
2023-04-17T19:06:58.770Z,60.56
2023-04-17T19:09:26.717Z,60.94
2023-04-17T19:11:55.085Z,60.48
2023-04-17T19:14:22.820Z,60.94
2023-04-17T19:16:50.659Z,62.15
2023-04-17T19:19:18.411Z,64.44
2023-04-17T19:21:47.451Z,65.10
2023-04-17T19:24:16.049Z,66.37
2023-04-17T19:26:43.778Z,67.24
2023-04-17T19:29:11.810Z,68.44
2023-04-17T19:31:40.436Z,65.59
2023-04-17T19:34:08.597Z,67.22
2023-04-17T19:36:36.366Z,69.12
2023-04-17T19:39:05.419Z,65.36
2023-04-17T19:41:33.192Z,69.42
2023-04-17T19:44:00.902Z,70.86
2023-04-17T19:46:29.275Z,72.13
2023-04-17T19:48:57.108Z,72.13
2023-04-17T19:51:24.813Z,69.81
2023-04-17T19:53:53.548Z,72.28
2023-04-17T19:56:22.671Z,73.65
2023-04-17T19:58:50.413Z,74.72
2023-04-17T20:01:18.154Z,75.30
2023-04-17T20:03:46.118Z,77.46
2023-04-17T20:06:14.610Z,77.69
2023-04-17T20:08:42.329Z,80.78
2023-04-17T20:11:12.111Z,80.22
2023-04-17T20:13:41.361Z,78.65
2023-04-17T20:16:09.593Z,73.85
2023-04-17T20:18:37.984Z,69.46
2023-04-17T20:21:06.384Z,62.32
2023-04-17T20:23:34.202Z,57.74
2023-04-17T20:26:03.308Z,56.82
2023-04-17T20:28:31.148Z,54.63
2023-04-17T20:31:00.278Z,53.13
2023-04-17T20:33:28.069Z,52.38
2023-04-17T20:35:55.788Z,51.39
2023-04-17T20:38:23.517Z,50.88
2023-04-17T20:40:51.192Z,50.63
2023-04-17T20:43:19.025Z,50.79
2023-04-17T20:45:48.364Z,49.80
2023-04-17T20:48:17.634Z,49.47
2023-04-17T20:50:45.443Z,48.43
2023-04-17T20:53:13.131Z,49.07
2023-04-17T20:55:40.815Z,48.63
2023-04-17T20:58:08.559Z,48.49
2023-04-17T21:00:38.447Z,49.40
2023-04-17T21:03:07.888Z,48.04
2023-04-17T21:05:37.121Z,48.28
2023-04-17T21:08:04.903Z,46.92
2023-04-17T21:10:32.617Z,46.54
2023-04-17T21:13:00.382Z,45.93
2023-04-17T21:15:28.248Z,46.18
2023-04-17T21:17:56.004Z,45.62
2023-04-17T21:20:23.893Z,45.60
2023-04-17T21:22:53.013Z,45.18
2023-04-17T21:25:20.723Z,45.33
2023-04-17T21:27:48.430Z,45.24
2023-04-17T21:30:16.690Z,45.81
2023-04-17T21:32:44.488Z,44.65
2023-04-17T21:35:12.291Z,45.47
2023-04-17T21:37:40.363Z,45.77
2023-04-17T21:40:10.906Z,45.89
2023-04-17T21:42:38.650Z,46.03
2023-04-17T21:45:07.650Z,46.51
2023-04-17T21:47:35.629Z,46.97
2023-04-17T21:50:03.468Z,47.23
2023-04-17T21:52:31.230Z,47.44
2023-04-17T21:55:03.148Z,47.17
2023-04-17T21:57:32.527Z,45.83
2023-04-17T22:00:00.408Z,46.88
2023-04-17T22:02:28.222Z,46.80
2023-04-17T22:04:56.071Z,46.45
2023-04-17T22:07:24.180Z,46.75
2023-04-17T22:09:51.895Z,47.39
2023-04-17T22:12:20.676Z,46.46
2023-04-17T22:14:50.272Z,47.12
2023-04-17T22:17:18.043Z,46.97
2023-04-17T22:19:45.786Z,47.57
2023-04-17T22:22:13.507Z,46.49
2023-04-17T22:24:42.527Z,46.83
2023-04-17T22:27:10.335Z,47.29
2023-04-17T22:29:38.063Z,47.84
2023-04-17T22:32:07.407Z,47.16
2023-04-17T22:34:35.117Z,47.53
2023-04-17T22:37:02.831Z,47.40
2023-04-17T22:39:31.055Z,47.07
2023-04-17T22:41:58.778Z,48.26
2023-04-17T22:44:26.498Z,47.92
2023-04-17T22:46:54.206Z,49.14
2023-04-17T22:49:24.063Z,49.30
2023-04-17T22:51:51.909Z,48.85
2023-04-17T22:54:23.119Z,48.54
2023-04-17T22:56:51.159Z,49.66
2023-04-17T22:59:18.911Z,49.70
2023-04-17T23:01:46.650Z,49.74
2023-04-17T23:04:14.674Z,49.25
2023-04-17T23:06:44.026Z,48.79
2023-04-17T23:09:12.158Z,50.25
2023-04-17T23:11:39.885Z,50.07
2023-04-17T23:14:07.843Z,50.14
2023-04-17T23:16:35.662Z,51.69
2023-04-17T23:19:03.379Z,50.94
2023-04-17T23:21:31.328Z,50.91
2023-04-17T23:24:00.388Z,51.50
2023-04-17T23:26:28.059Z,51.68
2023-04-17T23:28:55.767Z,51.71
2023-04-17T23:31:23.509Z,51.76
2023-04-17T23:33:51.240Z,51.74
2023-04-17T23:36:19.079Z,52.09
2023-04-17T23:38:46.793Z,52.09
2023-04-17T23:41:15.949Z,53.37
2023-04-17T23:43:43.655Z,53.11
2023-04-17T23:46:11.359Z,54.27
2023-04-17T23:48:39.170Z,53.87
2023-04-17T23:51:06.924Z,53.81
2023-04-17T23:53:34.849Z,53.76
2023-04-17T23:56:02.530Z,54.10
2023-04-17T23:58:31.668Z,55.46
